sensor_id;sensor_type;location;lat;lon;timestamp;temperature;humidity
8709;DHT22;4391;48.678;9.280;2023-05-10T00:02:00;13.30;99.90
8709;DHT22;4391;48.678;9.280;2023-05-10T00:04:27;13.30;99.90
8709;DHT22;4391;48.678;9.280;2023-05-10T00:06:54;13.30;99.90
8709;DHT22;4391;48.678;9.280;2023-05-10T00:09:20;13.30;99.90
8709;DHT22;4391;48.678;9.280;2023-05-10T00:11:48;13.30;99.90
8709;DHT22;4391;48.678;9.280;2023-05-10T00:14:15;13.30;99.90
8709;DHT22;4391;48.678;9.280;2023-05-10T00:16:42;13.30;99.90
8709;DHT22;4391;48.678;9.280;2023-05-10T00:19:09;13.30;99.90
8709;DHT22;4391;48.678;9.280;2023-05-10T00:21:36;13.20;99.90
8709;DHT22;4391;48.678;9.280;2023-05-10T00:24:03;13.20;99.90
8709;DHT22;4391;48.678;9.280;2023-05-10T00:26:30;13.20;99.90
8709;DHT22;4391;48.678;9.280;2023-05-10T00:28:58;13.20;99.90
8709;DHT22;4391;48.678;9.280;2023-05-10T00:31:25;13.20;99.90
8709;DHT22;4391;48.678;9.280;2023-05-10T00:33:52;13.20;99.90
8709;DHT22;4391;48.678;9.280;2023-05-10T00:36:18;13.20;99.90
8709;DHT22;4391;48.678;9.280;2023-05-10T00:38:46;13.30;99.90
8709;DHT22;4391;48.678;9.280;2023-05-10T00:41:13;13.30;99.90
8709;DHT22;4391;48.678;9.280;2023-05-10T00:43:39;13.20;99.90
8709;DHT22;4391;48.678;9.280;2023-05-10T00:46:08;13.10;99.90
8709;DHT22;4391;48.678;9.280;2023-05-10T00:48:34;12.80;99.90
8709;DHT22;4391;48.678;9.280;2023-05-10T00:51:01;12.80;99.90
8709;DHT22;4391;48.678;9.280;2023-05-10T00:53:31;12.70;99.90
8709;DHT22;4391;48.678;9.280;2023-05-10T00:55:57;12.60;99.90
8709;DHT22;4391;48.678;9.280;2023-05-10T00:58:25;12.60;99.90
8709;DHT22;4391;48.678;9.280;2023-05-10T01:00:54;12.50;99.90
8709;DHT22;4391;48.678;9.280;2023-05-10T01:03:23;12.50;99.90
8709;DHT22;4391;48.678;9.280;2023-05-10T01:05:50;12.50;99.90
8709;DHT22;4391;48.678;9.280;2023-05-10T01:08:16;12.40;99.90
8709;DHT22;4391;48.678;9.280;2023-05-10T01:10:44;12.40;99.90
8709;DHT22;4391;48.678;9.280;2023-05-10T01:13:11;12.50;99.90
8709;DHT22;4391;48.678;9.280;2023-05-10T01:15:39;12.40;99.90
8709;DHT22;4391;48.678;9.280;2023-05-10T01:18:08;12.40;99.90
8709;DHT22;4391;48.678;9.280;2023-05-10T01:20:41;12.30;99.90
8709;DHT22;4391;48.678;9.280;2023-05-10T01:23:22;12.40;99.90
8709;DHT22;4391;48.678;9.280;2023-05-10T01:26:14;12.40;99.90
8709;DHT22;4391;48.678;9.280;2023-05-10T01:29:04;12.40;99.90
8709;DHT22;4391;48.678;9.280;2023-05-10T01:32:01;12.30;99.90
8709;DHT22;4391;48.678;9.280;2023-05-10T01:34:34;12.30;99.90
8709;DHT22;4391;48.678;9.280;2023-05-10T01:37:06;12.30;99.90
8709;DHT22;4391;48.678;9.280;2023-05-10T01:39:42;12.30;99.90
8709;DHT22;4391;48.678;9.280;2023-05-10T01:42:14;12.30;99.90
8709;DHT22;4391;48.678;9.280;2023-05-10T01:44:46;12.30;99.90
8709;DHT22;4391;48.678;9.280;2023-05-10T01:47:22;12.30;99.90
8709;DHT22;4391;48.678;9.280;2023-05-10T01:49:54;12.30;99.90
8709;DHT22;4391;48.678;9.280;2023-05-10T01:52:26;12.30;99.90
8709;DHT22;4391;48.678;9.280;2023-05-10T01:55:01;12.30;99.90
8709;DHT22;4391;48.678;9.280;2023-05-10T01:57:33;12.30;99.90
8709;DHT22;4391;48.678;9.280;2023-05-10T02:00:01;12.30;99.90
8709;DHT22;4391;48.678;9.280;2023-05-10T02:02:35;12.20;99.90
8709;DHT22;4391;48.678;9.280;2023-05-10T02:05:05;12.20;99.90
8709;DHT22;4391;48.678;9.280;2023-05-10T02:07:35;12.20;99.90
8709;DHT22;4391;48.678;9.280;2023-05-10T02:10:03;12.20;99.90
8709;DHT22;4391;48.678;9.280;2023-05-10T02:12:32;12.20;99.90
8709;DHT22;4391;48.678;9.280;2023-05-10T02:15:03;12.20;99.90
8709;DHT22;4391;48.678;9.280;2023-05-10T02:17:33;12.20;99.90
8709;DHT22;4391;48.678;9.280;2023-05-10T02:20:01;12.20;99.90
8709;DHT22;4391;48.678;9.280;2023-05-10T02:22:30;12.20;99.90
8709;DHT22;4391;48.678;9.280;2023-05-10T02:24:58;12.20;99.90
8709;DHT22;4391;48.678;9.280;2023-05-10T02:27:27;12.10;99.90
8709;DHT22;4391;48.678;9.280;2023-05-10T02:29:55;12.20;99.90
8709;DHT22;4391;48.678;9.280;2023-05-10T02:32:24;12.10;99.90
8709;DHT22;4391;48.678;9.280;2023-05-10T02:34:54;12.10;99.90
8709;DHT22;4391;48.678;9.280;2023-05-10T02:37:22;12.10;99.90
8709;DHT22;4391;48.678;9.280;2023-05-10T02:39:52;12.00;99.90
8709;DHT22;4391;48.678;9.280;2023-05-10T02:42:23;12.10;99.90
8709;DHT22;4391;48.678;9.280;2023-05-10T02:45:01;12.10;99.90
8709;DHT22;4391;48.678;9.280;2023-05-10T02:47:28;12.00;99.90
8709;DHT22;4391;48.678;9.280;2023-05-10T02:49:57;12.00;99.90
8709;DHT22;4391;48.678;9.280;2023-05-10T02:52:27;12.00;99.90
8709;DHT22;4391;48.678;9.280;2023-05-10T02:54:55;12.00;99.90
8709;DHT22;4391;48.678;9.280;2023-05-10T02:57:27;12.00;99.90
8709;DHT22;4391;48.678;9.280;2023-05-10T02:59:55;12.00;99.90
8709;DHT22;4391;48.678;9.280;2023-05-10T03:02:21;12.00;99.90
8709;DHT22;4391;48.678;9.280;2023-05-10T03:04:48;12.00;99.90
8709;DHT22;4391;48.678;9.280;2023-05-10T03:07:17;11.90;99.90
8709;DHT22;4391;48.678;9.280;2023-05-10T03:09:46;11.90;99.90
8709;DHT22;4391;48.678;9.280;2023-05-10T03:12:18;11.90;99.90
8709;DHT22;4391;48.678;9.280;2023-05-10T03:14:53;11.90;99.90
8709;DHT22;4391;48.678;9.280;2023-05-10T03:17:30;11.90;99.90
8709;DHT22;4391;48.678;9.280;2023-05-10T03:19:58;12.00;99.90
8709;DHT22;4391;48.678;9.280;2023-05-10T03:22:32;11.90;99.90
8709;DHT22;4391;48.678;9.280;2023-05-10T03:25:05;11.90;99.90
8709;DHT22;4391;48.678;9.280;2023-05-10T03:27:32;11.90;99.90
8709;DHT22;4391;48.678;9.280;2023-05-10T03:30:01;11.90;99.90
8709;DHT22;4391;48.678;9.280;2023-05-10T03:32:29;11.90;99.90
8709;DHT22;4391;48.678;9.280;2023-05-10T03:34:57;11.90;99.90
8709;DHT22;4391;48.678;9.280;2023-05-10T03:37:24;11.90;99.90
8709;DHT22;4391;48.678;9.280;2023-05-10T03:39:52;11.90;99.90
8709;DHT22;4391;48.678;9.280;2023-05-10T03:42:19;12.00;99.90
8709;DHT22;4391;48.678;9.280;2023-05-10T03:44:46;11.90;99.90
8709;DHT22;4391;48.678;9.280;2023-05-10T03:47:14;12.00;99.90
8709;DHT22;4391;48.678;9.280;2023-05-10T03:49:41;11.90;99.90
8709;DHT22;4391;48.678;9.280;2023-05-10T03:52:08;11.90;99.90
8709;DHT22;4391;48.678;9.280;2023-05-10T03:54:35;11.90;99.90
8709;DHT22;4391;48.678;9.280;2023-05-10T03:57:03;11.90;99.90
8709;DHT22;4391;48.678;9.280;2023-05-10T03:59:30;11.90;99.90
8709;DHT22;4391;48.678;9.280;2023-05-10T04:01:57;11.90;99.90
8709;DHT22;4391;48.678;9.280;2023-05-10T04:04:24;11.90;99.90
8709;DHT22;4391;48.678;9.280;2023-05-10T04:06:51;11.90;99.90
8709;DHT22;4391;48.678;9.280;2023-05-10T04:09:17;11.90;99.90
8709;DHT22;4391;48.678;9.280;2023-05-10T04:11:44;11.90;99.90
8709;DHT22;4391;48.678;9.280;2023-05-10T04:14:12;11.90;99.90
8709;DHT22;4391;48.678;9.280;2023-05-10T04:16:39;11.90;99.90
8709;DHT22;4391;48.678;9.280;2023-05-10T04:19:06;11.90;99.90
8709;DHT22;4391;48.678;9.280;2023-05-10T04:21:33;11.90;99.90
8709;DHT22;4391;48.678;9.280;2023-05-10T04:23:59;11.90;99.90
8709;DHT22;4391;48.678;9.280;2023-05-10T04:26:26;11.90;99.90
8709;DHT22;4391;48.678;9.280;2023-05-10T04:28:53;11.90;99.90
8709;DHT22;4391;48.678;9.280;2023-05-10T04:31:21;11.80;99.90
8709;DHT22;4391;48.678;9.280;2023-05-10T04:33:48;11.80;99.90
8709;DHT22;4391;48.678;9.280;2023-05-10T04:36:16;11.80;99.90
8709;DHT22;4391;48.678;9.280;2023-05-10T04:38:43;11.80;99.90
8709;DHT22;4391;48.678;9.280;2023-05-10T04:41:25;11.80;99.90
8709;DHT22;4391;48.678;9.280;2023-05-10T04:44:23;11.90;99.90
8709;DHT22;4391;48.678;9.280;2023-05-10T04:47:53;11.90;99.90
8709;DHT22;4391;48.678;9.280;2023-05-10T04:51:19;11.90;99.90
8709;DHT22;4391;48.678;9.280;2023-05-10T04:54:11;12.00;99.90
8709;DHT22;4391;48.678;9.280;2023-05-10T04:56:39;12.00;99.90
8709;DHT22;4391;48.678;9.280;2023-05-10T04:59:09;12.10;99.90
8709;DHT22;4391;48.678;9.280;2023-05-10T05:08:16;12.10;99.90
8709;DHT22;4391;48.678;9.280;2023-05-10T05:10:43;12.20;99.90
8709;DHT22;4391;48.678;9.280;2023-05-10T05:13:10;12.20;99.90
8709;DHT22;4391;48.678;9.280;2023-05-10T05:15:38;12.20;99.90
8709;DHT22;4391;48.678;9.280;2023-05-10T05:18:05;12.30;99.90
8709;DHT22;4391;48.678;9.280;2023-05-10T05:20:32;12.30;99.90
8709;DHT22;4391;48.678;9.280;2023-05-10T05:22:59;12.40;99.90
8709;DHT22;4391;48.678;9.280;2023-05-10T05:25:27;12.40;99.90
8709;DHT22;4391;48.678;9.280;2023-05-10T05:27:54;12.40;99.90
8709;DHT22;4391;48.678;9.280;2023-05-10T05:30:23;12.50;99.90
8709;DHT22;4391;48.678;9.280;2023-05-10T05:32:50;12.50;99.90
8709;DHT22;4391;48.678;9.280;2023-05-10T05:35:17;12.60;99.90
8709;DHT22;4391;48.678;9.280;2023-05-10T05:37:44;12.60;99.90
8709;DHT22;4391;48.678;9.280;2023-05-10T05:40:12;12.60;99.90
8709;DHT22;4391;48.678;9.280;2023-05-10T05:42:41;12.70;99.90
8709;DHT22;4391;48.678;9.280;2023-05-10T05:45:08;12.60;99.90
8709;DHT22;4391;48.678;9.280;2023-05-10T05:47:38;12.70;99.90
8709;DHT22;4391;48.678;9.280;2023-05-10T05:50:06;12.60;99.90
8709;DHT22;4391;48.678;9.280;2023-05-10T05:52:32;12.70;99.90
8709;DHT22;4391;48.678;9.280;2023-05-10T05:54:59;12.70;99.90
8709;DHT22;4391;48.678;9.280;2023-05-10T05:57:26;12.70;99.90
8709;DHT22;4391;48.678;9.280;2023-05-10T05:59:54;12.80;99.90
8709;DHT22;4391;48.678;9.280;2023-05-10T06:02:21;12.80;99.90
8709;DHT22;4391;48.678;9.280;2023-05-10T06:04:48;12.70;99.90
8709;DHT22;4391;48.678;9.280;2023-05-10T06:07:15;12.80;99.90
8709;DHT22;4391;48.678;9.280;2023-05-10T06:09:42;12.70;99.90
8709;DHT22;4391;48.678;9.280;2023-05-10T06:12:08;12.90;99.90
8709;DHT22;4391;48.678;9.280;2023-05-10T06:14:37;12.90;99.90
8709;DHT22;4391;48.678;9.280;2023-05-10T06:17:05;12.90;99.90
8709;DHT22;4391;48.678;9.280;2023-05-10T06:19:32;13.00;99.90
8709;DHT22;4391;48.678;9.280;2023-05-10T06:21:59;13.20;99.90
8709;DHT22;4391;48.678;9.280;2023-05-10T06:24:26;13.10;99.90
8709;DHT22;4391;48.678;9.280;2023-05-10T06:26:53;13.30;99.90
8709;DHT22;4391;48.678;9.280;2023-05-10T06:29:20;13.40;99.90
8709;DHT22;4391;48.678;9.280;2023-05-10T06:31:46;13.60;99.90
8709;DHT22;4391;48.678;9.280;2023-05-10T06:34:15;13.60;99.90
8709;DHT22;4391;48.678;9.280;2023-05-10T06:36:42;13.70;99.90
8709;DHT22;4391;48.678;9.280;2023-05-10T06:39:12;13.70;99.90
8709;DHT22;4391;48.678;9.280;2023-05-10T06:41:39;13.70;99.90
8709;DHT22;4391;48.678;9.280;2023-05-10T06:44:06;13.70;99.90
8709;DHT22;4391;48.678;9.280;2023-05-10T06:46:34;13.80;99.90
8709;DHT22;4391;48.678;9.280;2023-05-10T06:49:00;13.90;99.90
8709;DHT22;4391;48.678;9.280;2023-05-10T06:51:29;13.90;99.90
8709;DHT22;4391;48.678;9.280;2023-05-10T06:53:56;14.00;99.90
8709;DHT22;4391;48.678;9.280;2023-05-10T06:56:23;14.20;99.90
8709;DHT22;4391;48.678;9.280;2023-05-10T06:58:49;14.10;97.70
8709;DHT22;4391;48.678;9.280;2023-05-10T07:01:16;14.10;94.00
8709;DHT22;4391;48.678;9.280;2023-05-10T07:03:43;14.00;99.10
8709;DHT22;4391;48.678;9.280;2023-05-10T07:06:10;13.90;81.60
8709;DHT22;4391;48.678;9.280;2023-05-10T07:08:38;13.90;94.30
8709;DHT22;4391;48.678;9.280;2023-05-10T07:11:06;13.80;99.90
8709;DHT22;4391;48.678;9.280;2023-05-10T07:13:36;13.80;99.90
8709;DHT22;4391;48.678;9.280;2023-05-10T07:16:05;13.80;99.60
8709;DHT22;4391;48.678;9.280;2023-05-10T07:18:32;13.70;98.60
8709;DHT22;4391;48.678;9.280;2023-05-10T07:20:58;13.70;99.90
8709;DHT22;4391;48.678;9.280;2023-05-10T07:23:25;13.80;99.90
8709;DHT22;4391;48.678;9.280;2023-05-10T07:25:54;14.00;97.50
8709;DHT22;4391;48.678;9.280;2023-05-10T07:28:22;14.10;93.00
8709;DHT22;4391;48.678;9.280;2023-05-10T07:30:49;14.20;97.50
8709;DHT22;4391;48.678;9.280;2023-05-10T07:33:16;14.20;84.80
8709;DHT22;4391;48.678;9.280;2023-05-10T07:35:43;14.40;82.60
8709;DHT22;4391;48.678;9.280;2023-05-10T07:38:10;14.30;78.90
8709;DHT22;4391;48.678;9.280;2023-05-10T07:40:38;14.40;89.60
8709;DHT22;4391;48.678;9.280;2023-05-10T07:43:06;14.50;47.40
8709;DHT22;4391;48.678;9.280;2023-05-10T07:45:33;14.60;41.60
8709;DHT22;4391;48.678;9.280;2023-05-10T07:48:00;14.90;38.80
8709;DHT22;4391;48.678;9.280;2023-05-10T07:50:27;14.80;1.00
8709;DHT22;4391;48.678;9.280;2023-05-10T07:52:54;14.70;1.00
8709;DHT22;4391;48.678;9.280;2023-05-10T07:55:21;14.70;24.90
8709;DHT22;4391;48.678;9.280;2023-05-10T07:57:47;14.70;42.70
8709;DHT22;4391;48.678;9.280;2023-05-10T08:00:19;14.70;32.50
8709;DHT22;4391;48.678;9.280;2023-05-10T08:02:47;14.80;24.50
8709;DHT22;4391;48.678;9.280;2023-05-10T08:05:14;14.80;7.00
8709;DHT22;4391;48.678;9.280;2023-05-10T08:07:41;14.70;21.10
8709;DHT22;4391;48.678;9.280;2023-05-10T08:10:08;14.70;1.00
8709;DHT22;4391;48.678;9.280;2023-05-10T08:12:36;14.60;43.10
8709;DHT22;4391;48.678;9.280;2023-05-10T08:15:03;14.50;1.00
8709;DHT22;4391;48.678;9.280;2023-05-10T08:17:32;14.50;24.20
8709;DHT22;4391;48.678;9.280;2023-05-10T08:19:59;14.60;14.90
8709;DHT22;4391;48.678;9.280;2023-05-10T08:22:25;14.70;1.00
8709;DHT22;4391;48.678;9.280;2023-05-10T08:24:52;14.70;8.30
8709;DHT22;4391;48.678;9.280;2023-05-10T08:27:23;14.70;1.00
8709;DHT22;4391;48.678;9.280;2023-05-10T08:29:49;14.90;1.00
8709;DHT22;4391;48.678;9.280;2023-05-10T08:32:16;15.00;1.00
8709;DHT22;4391;48.678;9.280;2023-05-10T08:34:44;15.10;1.00
8709;DHT22;4391;48.678;9.280;2023-05-10T08:37:11;15.10;1.00
8709;DHT22;4391;48.678;9.280;2023-05-10T08:39:38;15.20;1.00
8709;DHT22;4391;48.678;9.280;2023-05-10T08:42:06;15.30;1.00
8709;DHT22;4391;48.678;9.280;2023-05-10T08:44:35;15.30;1.00
8709;DHT22;4391;48.678;9.280;2023-05-10T08:47:05;15.40;1.00
8709;DHT22;4391;48.678;9.280;2023-05-10T08:49:32;15.40;1.00
8709;DHT22;4391;48.678;9.280;2023-05-10T08:52:03;15.30;1.00
8709;DHT22;4391;48.678;9.280;2023-05-10T08:54:32;15.30;1.00
8709;DHT22;4391;48.678;9.280;2023-05-10T08:56:59;15.60;1.00
8709;DHT22;4391;48.678;9.280;2023-05-10T08:59:27;15.50;1.00
8709;DHT22;4391;48.678;9.280;2023-05-10T09:01:55;15.50;1.00
8709;DHT22;4391;48.678;9.280;2023-05-10T09:04:24;15.40;1.00
8709;DHT22;4391;48.678;9.280;2023-05-10T09:06:51;15.50;1.00
8709;DHT22;4391;48.678;9.280;2023-05-10T09:09:19;15.70;1.00
8709;DHT22;4391;48.678;9.280;2023-05-10T09:11:47;16.00;99.90
8709;DHT22;4391;48.678;9.280;2023-05-10T09:14:15;16.00;99.90
8709;DHT22;4391;48.678;9.280;2023-05-10T09:16:42;16.00;99.90
8709;DHT22;4391;48.678;9.280;2023-05-10T09:19:09;16.10;99.90
8709;DHT22;4391;48.678;9.280;2023-05-10T09:21:37;15.90;1.00
8709;DHT22;4391;48.678;9.280;2023-05-10T09:24:05;15.90;1.00
8709;DHT22;4391;48.678;9.280;2023-05-10T09:26:34;15.90;99.90
8709;DHT22;4391;48.678;9.280;2023-05-10T09:29:01;16.10;78.70
8709;DHT22;4391;48.678;9.280;2023-05-10T09:31:45;16.40;99.90
8709;DHT22;4391;48.678;9.280;2023-05-10T09:34:16;16.80;1.00
8709;DHT22;4391;48.678;9.280;2023-05-10T09:36:54;16.90;99.90
8709;DHT22;4391;48.678;9.280;2023-05-10T09:39:30;16.80;4.70
8709;DHT22;4391;48.678;9.280;2023-05-10T09:41:59;16.60;99.90
8709;DHT22;4391;48.678;9.280;2023-05-10T09:44:29;16.90;99.90
8709;DHT22;4391;48.678;9.280;2023-05-10T09:46:57;16.90;1.00
8709;DHT22;4391;48.678;9.280;2023-05-10T09:49:24;16.90;99.90
8709;DHT22;4391;48.678;9.280;2023-05-10T09:52:01;17.00;1.00
8709;DHT22;4391;48.678;9.280;2023-05-10T09:54:28;17.10;1.00
8709;DHT22;4391;48.678;9.280;2023-05-10T09:56:55;17.00;99.90
8709;DHT22;4391;48.678;9.280;2023-05-10T09:59:25;17.30;1.00
8709;DHT22;4391;48.678;9.280;2023-05-10T10:01:53;17.40;99.90
8709;DHT22;4391;48.678;9.280;2023-05-10T10:04:22;17.40;99.90
8709;DHT22;4391;48.678;9.280;2023-05-10T10:06:58;17.30;99.90
8709;DHT22;4391;48.678;9.280;2023-05-10T10:09:26;17.30;99.90
8709;DHT22;4391;48.678;9.280;2023-05-10T10:11:54;17.30;99.90
8709;DHT22;4391;48.678;9.280;2023-05-10T10:14:23;17.40;1.00
8709;DHT22;4391;48.678;9.280;2023-05-10T10:16:50;17.40;99.90
8709;DHT22;4391;48.678;9.280;2023-05-10T10:19:18;17.30;99.90
8709;DHT22;4391;48.678;9.280;2023-05-10T10:21:45;17.40;99.90
8709;DHT22;4391;48.678;9.280;2023-05-10T10:24:11;17.50;99.90
8709;DHT22;4391;48.678;9.280;2023-05-10T10:26:39;17.60;51.80
8709;DHT22;4391;48.678;9.280;2023-05-10T10:29:14;17.70;99.90
8709;DHT22;4391;48.678;9.280;2023-05-10T10:31:50;17.90;99.90
8709;DHT22;4391;48.678;9.280;2023-05-10T10:34:25;18.30;13.50
8709;DHT22;4391;48.678;9.280;2023-05-10T10:36:54;18.70;99.90
8709;DHT22;4391;48.678;9.280;2023-05-10T10:39:22;19.00;1.00
8709;DHT22;4391;48.678;9.280;2023-05-10T10:41:51;19.20;1.00
8709;DHT22;4391;48.678;9.280;2023-05-10T10:44:35;19.10;1.00
8709;DHT22;4391;48.678;9.280;2023-05-10T10:47:23;19.00;1.00
8709;DHT22;4391;48.678;9.280;2023-05-10T10:50:02;19.00;1.00
8709;DHT22;4391;48.678;9.280;2023-05-10T10:52:31;19.10;1.00
8709;DHT22;4391;48.678;9.280;2023-05-10T10:55:01;19.20;1.00
8709;DHT22;4391;48.678;9.280;2023-05-10T10:57:31;19.30;1.00
8709;DHT22;4391;48.678;9.280;2023-05-10T11:00:21;18.90;1.00
8709;DHT22;4391;48.678;9.280;2023-05-10T11:02:52;18.70;1.00
8709;DHT22;4391;48.678;9.280;2023-05-10T11:08:15;17.90;1.00
8709;DHT22;4391;48.678;9.280;2023-05-10T11:10:51;17.70;1.00
8709;DHT22;4391;48.678;9.280;2023-05-10T11:13:27;17.40;1.00
8709;DHT22;4391;48.678;9.280;2023-05-10T11:15:56;17.40;99.90
8709;DHT22;4391;48.678;9.280;2023-05-10T11:18:26;17.40;1.00
8709;DHT22;4391;48.678;9.280;2023-05-10T11:20:57;17.00;35.80
8709;DHT22;4391;48.678;9.280;2023-05-10T11:23:30;16.50;1.00
8709;DHT22;4391;48.678;9.280;2023-05-10T11:25:58;16.00;1.00
8709;DHT22;4391;48.678;9.280;2023-05-10T11:28:26;15.40;1.00
8709;DHT22;4391;48.678;9.280;2023-05-10T11:30:53;15.00;1.00
8709;DHT22;4391;48.678;9.280;2023-05-10T11:33:20;14.80;1.00
8709;DHT22;4391;48.678;9.280;2023-05-10T11:35:49;14.80;99.90
8709;DHT22;4391;48.678;9.280;2023-05-10T11:38:15;14.60;99.90
8709;DHT22;4391;48.678;9.280;2023-05-10T11:40:43;14.40;1.00
8709;DHT22;4391;48.678;9.280;2023-05-10T11:43:10;14.20;15.20
8709;DHT22;4391;48.678;9.280;2023-05-10T11:45:38;13.90;93.70
8709;DHT22;4391;48.678;9.280;2023-05-10T11:48:06;13.50;1.00
8709;DHT22;4391;48.678;9.280;2023-05-10T11:50:33;12.90;1.00
8709;DHT22;4391;48.678;9.280;2023-05-10T11:53:01;12.50;31.70
8709;DHT22;4391;48.678;9.280;2023-05-10T11:55:28;12.20;78.50
8709;DHT22;4391;48.678;9.280;2023-05-10T11:58:00;12.10;99.90
8709;DHT22;4391;48.678;9.280;2023-05-10T12:00:27;12.00;99.90
8709;DHT22;4391;48.678;9.280;2023-05-10T12:02:54;12.00;99.90
8709;DHT22;4391;48.678;9.280;2023-05-10T12:05:21;12.00;99.90
8709;DHT22;4391;48.678;9.280;2023-05-10T12:07:48;12.10;99.90
8709;DHT22;4391;48.678;9.280;2023-05-10T12:10:25;12.20;99.90
8709;DHT22;4391;48.678;9.280;2023-05-10T12:12:53;12.20;99.90
8709;DHT22;4391;48.678;9.280;2023-05-10T12:15:21;12.30;99.90
8709;DHT22;4391;48.678;9.280;2023-05-10T12:17:49;12.50;99.90
8709;DHT22;4391;48.678;9.280;2023-05-10T12:20:17;12.70;99.90
8709;DHT22;4391;48.678;9.280;2023-05-10T12:22:46;12.90;70.50
8709;DHT22;4391;48.678;9.280;2023-05-10T12:25:13;13.20;97.30
8709;DHT22;4391;48.678;9.280;2023-05-10T12:27:50;13.50;93.60
8709;DHT22;4391;48.678;9.280;2023-05-10T12:30:21;13.80;9.00
8709;DHT22;4391;48.678;9.280;2023-05-10T12:32:48;13.90;10.80
8709;DHT22;4391;48.678;9.280;2023-05-10T12:35:15;14.10;1.00
8709;DHT22;4391;48.678;9.280;2023-05-10T12:37:43;14.10;1.00
8709;DHT22;4391;48.678;9.280;2023-05-10T12:40:10;14.20;1.00
8709;DHT22;4391;48.678;9.280;2023-05-10T12:42:38;14.20;1.00
8709;DHT22;4391;48.678;9.280;2023-05-10T12:45:08;14.30;1.00
8709;DHT22;4391;48.678;9.280;2023-05-10T12:47:35;14.30;1.00
8709;DHT22;4391;48.678;9.280;2023-05-10T12:50:03;14.30;1.00
8709;DHT22;4391;48.678;9.280;2023-05-10T12:52:31;14.30;1.00
8709;DHT22;4391;48.678;9.280;2023-05-10T12:54:58;14.40;1.00
8709;DHT22;4391;48.678;9.280;2023-05-10T12:57:25;14.40;1.00
8709;DHT22;4391;48.678;9.280;2023-05-10T12:59:55;14.60;1.00
8709;DHT22;4391;48.678;9.280;2023-05-10T13:02:23;14.60;1.00
8709;DHT22;4391;48.678;9.280;2023-05-10T13:04:50;14.50;1.00
8709;DHT22;4391;48.678;9.280;2023-05-10T13:07:17;14.70;1.00
8709;DHT22;4391;48.678;9.280;2023-05-10T13:09:44;14.80;1.00
8709;DHT22;4391;48.678;9.280;2023-05-10T13:12:11;15.10;1.00
8709;DHT22;4391;48.678;9.280;2023-05-10T13:14:37;15.30;1.00
8709;DHT22;4391;48.678;9.280;2023-05-10T13:17:06;15.40;1.00
8709;DHT22;4391;48.678;9.280;2023-05-10T13:19:34;15.60;1.00
8709;DHT22;4391;48.678;9.280;2023-05-10T13:22:00;15.70;99.90
8709;DHT22;4391;48.678;9.280;2023-05-10T13:24:27;15.90;1.00
8709;DHT22;4391;48.678;9.280;2023-05-10T13:26:54;16.30;1.00
8709;DHT22;4391;48.678;9.280;2023-05-10T13:29:21;16.40;13.40
8709;DHT22;4391;48.678;9.280;2023-05-10T13:31:48;16.40;1.00
8709;DHT22;4391;48.678;9.280;2023-05-10T13:34:15;16.40;35.80
8709;DHT22;4391;48.678;9.280;2023-05-10T13:36:43;16.40;99.90
8709;DHT22;4391;48.678;9.280;2023-05-10T13:39:10;16.60;99.90
8709;DHT22;4391;48.678;9.280;2023-05-10T13:41:37;17.00;1.00
8709;DHT22;4391;48.678;9.280;2023-05-10T13:44:04;17.30;1.00
8709;DHT22;4391;48.678;9.280;2023-05-10T13:46:31;17.30;1.00
8709;DHT22;4391;48.678;9.280;2023-05-10T13:48:58;17.50;1.00
8709;DHT22;4391;48.678;9.280;2023-05-10T13:51:24;17.40;1.00
8709;DHT22;4391;48.678;9.280;2023-05-10T13:53:53;17.40;1.00
8709;DHT22;4391;48.678;9.280;2023-05-10T13:56:19;17.20;1.00
8709;DHT22;4391;48.678;9.280;2023-05-10T13:58:46;17.00;1.00
8709;DHT22;4391;48.678;9.280;2023-05-10T14:01:13;16.70;1.00
8709;DHT22;4391;48.678;9.280;2023-05-10T14:03:40;16.70;1.00
8709;DHT22;4391;48.678;9.280;2023-05-10T14:06:07;16.70;1.00
8709;DHT22;4391;48.678;9.280;2023-05-10T14:08:35;16.50;1.00
8709;DHT22;4391;48.678;9.280;2023-05-10T14:11:03;16.50;1.00
8709;DHT22;4391;48.678;9.280;2023-05-10T14:13:30;16.60;1.00
8709;DHT22;4391;48.678;9.280;2023-05-10T14:15:57;16.60;1.00
8709;DHT22;4391;48.678;9.280;2023-05-10T14:18:26;16.80;1.00
8709;DHT22;4391;48.678;9.280;2023-05-10T14:20:53;16.80;1.00
8709;DHT22;4391;48.678;9.280;2023-05-10T14:23:20;16.90;1.00
8709;DHT22;4391;48.678;9.280;2023-05-10T14:25:49;17.00;99.90
8709;DHT22;4391;48.678;9.280;2023-05-10T14:28:17;17.00;1.00
8709;DHT22;4391;48.678;9.280;2023-05-10T14:30:46;17.10;1.00
8709;DHT22;4391;48.678;9.280;2023-05-10T14:33:13;17.30;1.00
8709;DHT22;4391;48.678;9.280;2023-05-10T14:35:42;17.30;99.90
8709;DHT22;4391;48.678;9.280;2023-05-10T14:38:09;17.40;99.90
8709;DHT22;4391;48.678;9.280;2023-05-10T14:40:36;17.20;99.90
8709;DHT22;4391;48.678;9.280;2023-05-10T14:43:03;17.30;1.00
8709;DHT22;4391;48.678;9.280;2023-05-10T14:45:31;17.50;1.00
8709;DHT22;4391;48.678;9.280;2023-05-10T14:47:58;17.70;99.90
8709;DHT22;4391;48.678;9.280;2023-05-10T14:50:30;17.80;99.90
8709;DHT22;4391;48.678;9.280;2023-05-10T14:52:56;17.90;1.00
8709;DHT22;4391;48.678;9.280;2023-05-10T14:55:23;18.00;1.00
8709;DHT22;4391;48.678;9.280;2023-05-10T14:57:50;18.00;87.20
8709;DHT22;4391;48.678;9.280;2023-05-10T15:00:18;18.00;1.00
8709;DHT22;4391;48.678;9.280;2023-05-10T15:02:47;18.10;1.00
8709;DHT22;4391;48.678;9.280;2023-05-10T15:05:16;17.90;1.00
8709;DHT22;4391;48.678;9.280;2023-05-10T15:07:43;17.70;99.90
8709;DHT22;4391;48.678;9.280;2023-05-10T15:10:10;17.60;99.90
8709;DHT22;4391;48.678;9.280;2023-05-10T15:12:38;17.60;99.90
8709;DHT22;4391;48.678;9.280;2023-05-10T15:15:06;17.50;1.00
8709;DHT22;4391;48.678;9.280;2023-05-10T15:17:33;17.50;99.90
8709;DHT22;4391;48.678;9.280;2023-05-10T15:20:02;17.30;8.30
8709;DHT22;4391;48.678;9.280;2023-05-10T15:22:29;17.20;1.00
8709;DHT22;4391;48.678;9.280;2023-05-10T15:24:57;17.00;1.00
8709;DHT22;4391;48.678;9.280;2023-05-10T15:27:23;17.00;1.00
8709;DHT22;4391;48.678;9.280;2023-05-10T15:29:50;17.00;1.00
8709;DHT22;4391;48.678;9.280;2023-05-10T15:32:17;17.10;83.90
8709;DHT22;4391;48.678;9.280;2023-05-10T15:34:44;17.10;1.00
8709;DHT22;4391;48.678;9.280;2023-05-10T15:37:13;17.20;99.90
8709;DHT22;4391;48.678;9.280;2023-05-10T15:39:40;17.30;99.90
8709;DHT22;4391;48.678;9.280;2023-05-10T15:42:07;17.40;1.00
8709;DHT22;4391;48.678;9.280;2023-05-10T15:44:34;17.20;99.90
8709;DHT22;4391;48.678;9.280;2023-05-10T15:47:03;17.20;99.90
8709;DHT22;4391;48.678;9.280;2023-05-10T15:49:30;17.20;1.00
8709;DHT22;4391;48.678;9.280;2023-05-10T15:51:57;17.10;1.00
8709;DHT22;4391;48.678;9.280;2023-05-10T15:54:25;17.20;99.90
8709;DHT22;4391;48.678;9.280;2023-05-10T15:56:52;17.20;6.50
8709;DHT22;4391;48.678;9.280;2023-05-10T15:59:19;17.20;99.90
8709;DHT22;4391;48.678;9.280;2023-05-10T16:01:46;17.20;1.00
8709;DHT22;4391;48.678;9.280;2023-05-10T16:04:16;17.10;1.00
8709;DHT22;4391;48.678;9.280;2023-05-10T16:06:43;17.00;93.80
8709;DHT22;4391;48.678;9.280;2023-05-10T16:09:10;16.80;99.90
8709;DHT22;4391;48.678;9.280;2023-05-10T16:11:39;16.80;99.90
8709;DHT22;4391;48.678;9.280;2023-05-10T16:14:06;16.70;1.00
8709;DHT22;4391;48.678;9.280;2023-05-10T16:16:33;16.70;99.90
8709;DHT22;4391;48.678;9.280;2023-05-10T16:19:00;16.70;99.90
8709;DHT22;4391;48.678;9.280;2023-05-10T16:21:29;16.50;12.10
8709;DHT22;4391;48.678;9.280;2023-05-10T16:23:56;16.40;1.00
8709;DHT22;4391;48.678;9.280;2023-05-10T16:26:23;16.40;99.90
8709;DHT22;4391;48.678;9.280;2023-05-10T16:28:52;16.30;99.90